sensor_id;sensor_type;location;lat;lon;timestamp;P1;durP1;ratioP1;P2;durP2;ratioP2
5807;SDS011;2930;42.678;23.312;2023-03-13T00:01:56;0.57;;;0.57;;
5807;SDS011;2930;42.678;23.312;2023-03-13T00:04:22;0.83;;;0.83;;
5807;SDS011;2930;42.678;23.312;2023-03-13T00:06:48;0.47;;;0.47;;
5807;SDS011;2930;42.678;23.312;2023-03-13T00:09:14;0.83;;;0.83;;
5807;SDS011;2930;42.678;23.312;2023-03-13T00:11:40;0.97;;;0.97;;
5807;SDS011;2930;42.678;23.312;2023-03-13T00:14:07;0.73;;;0.73;;
5807;SDS011;2930;42.678;23.312;2023-03-13T00:16:33;0.47;;;0.47;;
5807;SDS011;2930;42.678;23.312;2023-03-13T00:18:59;1.50;;;0.60;;
5807;SDS011;2930;42.678;23.312;2023-03-13T00:21:26;0.93;;;0.93;;
5807;SDS011;2930;42.678;23.312;2023-03-13T00:23:53;0.50;;;0.40;;
5807;SDS011;2930;42.678;23.312;2023-03-13T00:26:20;0.90;;;0.90;;
5807;SDS011;2930;42.678;23.312;2023-03-13T00:28:47;0.50;;;0.50;;
5807;SDS011;2930;42.678;23.312;2023-03-13T00:31:22;0.70;;;0.70;;
5807;SDS011;2930;42.678;23.312;2023-03-13T00:33:53;1.87;;;0.70;;
5807;SDS011;2930;42.678;23.312;2023-03-13T00:36:22;0.83;;;0.83;;
5807;SDS011;2930;42.678;23.312;2023-03-13T00:38:50;1.43;;;0.83;;
5807;SDS011;2930;42.678;23.312;2023-03-13T00:41:17;1.57;;;0.70;;
5807;SDS011;2930;42.678;23.312;2023-03-13T00:43:45;0.57;;;0.57;;
5807;SDS011;2930;42.678;23.312;2023-03-13T00:46:13;0.70;;;0.70;;
5807;SDS011;2930;42.678;23.312;2023-03-13T00:48:40;0.80;;;0.80;;
5807;SDS011;2930;42.678;23.312;2023-03-13T00:51:05;0.80;;;0.80;;
5807;SDS011;2930;42.678;23.312;2023-03-13T00:53:32;0.87;;;0.80;;
5807;SDS011;2930;42.678;23.312;2023-03-13T00:58:32;0.40;;;0.40;;
5807;SDS011;2930;42.678;23.312;2023-03-13T01:01:09;0.43;;;0.43;;
5807;SDS011;2930;42.678;23.312;2023-03-13T01:03:51;1.13;;;0.30;;
5807;SDS011;2930;42.678;23.312;2023-03-13T01:06:20;0.80;;;0.50;;
5807;SDS011;2930;42.678;23.312;2023-03-13T01:08:47;0.60;;;0.60;;
5807;SDS011;2930;42.678;23.312;2023-03-13T01:11:17;1.40;;;0.93;;
5807;SDS011;2930;42.678;23.312;2023-03-13T01:13:45;0.40;;;0.40;;
5807;SDS011;2930;42.678;23.312;2023-03-13T01:16:12;0.60;;;0.60;;
5807;SDS011;2930;42.678;23.312;2023-03-13T01:18:44;0.97;;;0.70;;
5807;SDS011;2930;42.678;23.312;2023-03-13T01:21:11;0.70;;;0.70;;
5807;SDS011;2930;42.678;23.312;2023-03-13T01:23:38;0.67;;;0.67;;
5807;SDS011;2930;42.678;23.312;2023-03-13T01:26:04;0.43;;;0.43;;
5807;SDS011;2930;42.678;23.312;2023-03-13T01:28:31;0.27;;;0.27;;
5807;SDS011;2930;42.678;23.312;2023-03-13T01:30:57;0.57;;;0.50;;
5807;SDS011;2930;42.678;23.312;2023-03-13T01:33:23;2.70;;;0.70;;
5807;SDS011;2930;42.678;23.312;2023-03-13T01:35:49;0.50;;;0.50;;
5807;SDS011;2930;42.678;23.312;2023-03-13T01:38:15;0.77;;;0.77;;
5807;SDS011;2930;42.678;23.312;2023-03-13T01:40:44;0.80;;;0.60;;
5807;SDS011;2930;42.678;23.312;2023-03-13T01:43:15;0.40;;;0.40;;
5807;SDS011;2930;42.678;23.312;2023-03-13T01:48:22;0.40;;;0.40;;
5807;SDS011;2930;42.678;23.312;2023-03-13T01:51:02;1.90;;;0.70;;
5807;SDS011;2930;42.678;23.312;2023-03-13T01:53:32;1.10;;;0.60;;
5807;SDS011;2930;42.678;23.312;2023-03-13T01:56:01;0.77;;;0.77;;
5807;SDS011;2930;42.678;23.312;2023-03-13T01:58:32;0.60;;;0.60;;
5807;SDS011;2930;42.678;23.312;2023-03-13T02:00:58;0.70;;;0.67;;
5807;SDS011;2930;42.678;23.312;2023-03-13T02:03:24;0.50;;;0.50;;
5807;SDS011;2930;42.678;23.312;2023-03-13T02:05:52;0.33;;;0.33;;
5807;SDS011;2930;42.678;23.312;2023-03-13T02:08:23;2.10;;;0.70;;
5807;SDS011;2930;42.678;23.312;2023-03-13T02:10:57;0.37;;;0.30;;
5807;SDS011;2930;42.678;23.312;2023-03-13T02:13:37;0.83;;;0.73;;
5807;SDS011;2930;42.678;23.312;2023-03-13T02:16:03;0.60;;;0.60;;
5807;SDS011;2930;42.678;23.312;2023-03-13T02:18:30;0.53;;;0.53;;
5807;SDS011;2930;42.678;23.312;2023-03-13T02:20:58;0.50;;;0.50;;
5807;SDS011;2930;42.678;23.312;2023-03-13T02:26:44;1.20;;;0.80;;
5807;SDS011;2930;42.678;23.312;2023-03-13T02:29:10;1.70;;;0.83;;
5807;SDS011;2930;42.678;23.312;2023-03-13T02:31:43;3.40;;;0.63;;
5807;SDS011;2930;42.678;23.312;2023-03-13T02:34:13;0.40;;;0.40;;
5807;SDS011;2930;42.678;23.312;2023-03-13T02:36:42;0.90;;;0.90;;
5807;SDS011;2930;42.678;23.312;2023-03-13T02:39:10;0.97;;;0.57;;
5807;SDS011;2930;42.678;23.312;2023-03-13T02:41:37;0.70;;;0.70;;
5807;SDS011;2930;42.678;23.312;2023-03-13T02:44:06;0.77;;;0.77;;
5807;SDS011;2930;42.678;23.312;2023-03-13T02:46:42;0.50;;;0.40;;
5807;SDS011;2930;42.678;23.312;2023-03-13T02:49:43;1.30;;;0.63;;
5807;SDS011;2930;42.678;23.312;2023-03-13T02:52:12;1.10;;;0.67;;
5807;SDS011;2930;42.678;23.312;2023-03-13T02:54:42;0.87;;;0.80;;
5807;SDS011;2930;42.678;23.312;2023-03-13T02:57:11;1.03;;;0.63;;
5807;SDS011;2930;42.678;23.312;2023-03-13T02:59:37;0.50;;;0.50;;
5807;SDS011;2930;42.678;23.312;2023-03-13T03:02:03;1.13;;;0.33;;
5807;SDS011;2930;42.678;23.312;2023-03-13T03:04:29;1.33;;;1.13;;
5807;SDS011;2930;42.678;23.312;2023-03-13T03:06:54;0.50;;;0.50;;
5807;SDS011;2930;42.678;23.312;2023-03-13T03:09:21;0.73;;;0.73;;
5807;SDS011;2930;42.678;23.312;2023-03-13T03:11:47;0.80;;;0.80;;
5807;SDS011;2930;42.678;23.312;2023-03-13T03:14:13;0.60;;;0.60;;
5807;SDS011;2930;42.678;23.312;2023-03-13T03:16:39;0.90;;;0.90;;
5807;SDS011;2930;42.678;23.312;2023-03-13T03:19:05;0.57;;;0.57;;
5807;SDS011;2930;42.678;23.312;2023-03-13T03:21:31;1.03;;;1.03;;
5807;SDS011;2930;42.678;23.312;2023-03-13T03:23:57;0.83;;;0.83;;
5807;SDS011;2930;42.678;23.312;2023-03-13T03:26:23;1.10;;;0.93;;
5807;SDS011;2930;42.678;23.312;2023-03-13T03:28:49;0.93;;;0.93;;
5807;SDS011;2930;42.678;23.312;2023-03-13T03:31:15;0.60;;;0.60;;
5807;SDS011;2930;42.678;23.312;2023-03-13T03:33:41;3.60;;;1.17;;
5807;SDS011;2930;42.678;23.312;2023-03-13T03:36:12;0.93;;;0.93;;
5807;SDS011;2930;42.678;23.312;2023-03-13T03:38:41;1.30;;;1.30;;
5807;SDS011;2930;42.678;23.312;2023-03-13T03:41:09;0.60;;;0.60;;
5807;SDS011;2930;42.678;23.312;2023-03-13T03:43:36;0.70;;;0.70;;
5807;SDS011;2930;42.678;23.312;2023-03-13T03:46:02;0.80;;;0.80;;
5807;SDS011;2930;42.678;23.312;2023-03-13T03:48:28;2.23;;;0.90;;
5807;SDS011;2930;42.678;23.312;2023-03-13T03:50:54;1.87;;;1.43;;
5807;SDS011;2930;42.678;23.312;2023-03-13T03:53:20;0.97;;;0.97;;
5807;SDS011;2930;42.678;23.312;2023-03-13T03:55:45;0.77;;;0.77;;
5807;SDS011;2930;42.678;23.312;2023-03-13T03:58:12;1.03;;;0.90;;
5807;SDS011;2930;42.678;23.312;2023-03-13T04:00:38;3.00;;;0.60;;
5807;SDS011;2930;42.678;23.312;2023-03-13T04:03:06;0.57;;;0.57;;
5807;SDS011;2930;42.678;23.312;2023-03-13T04:05:32;0.67;;;0.67;;
5807;SDS011;2930;42.678;23.312;2023-03-13T04:07:58;0.73;;;0.73;;
5807;SDS011;2930;42.678;23.312;2023-03-13T04:10:23;0.47;;;0.47;;
5807;SDS011;2930;42.678;23.312;2023-03-13T04:12:49;0.50;;;0.50;;
5807;SDS011;2930;42.678;23.312;2023-03-13T04:15:15;0.77;;;0.77;;
5807;SDS011;2930;42.678;23.312;2023-03-13T04:17:40;0.80;;;0.67;;
5807;SDS011;2930;42.678;23.312;2023-03-13T04:20:06;0.67;;;0.67;;
5807;SDS011;2930;42.678;23.312;2023-03-13T04:22:33;0.70;;;0.70;;
5807;SDS011;2930;42.678;23.312;2023-03-13T04:24:58;0.50;;;0.50;;
5807;SDS011;2930;42.678;23.312;2023-03-13T04:27:24;0.87;;;0.87;;
5807;SDS011;2930;42.678;23.312;2023-03-13T04:29:50;0.70;;;0.70;;
5807;SDS011;2930;42.678;23.312;2023-03-13T04:32:16;0.43;;;0.43;;
5807;SDS011;2930;42.678;23.312;2023-03-13T04:34:41;0.70;;;0.70;;
5807;SDS011;2930;42.678;23.312;2023-03-13T04:37:07;0.73;;;0.73;;
5807;SDS011;2930;42.678;23.312;2023-03-13T04:39:33;0.40;;;0.40;;
5807;SDS011;2930;42.678;23.312;2023-03-13T04:41:58;1.57;;;0.40;;
5807;SDS011;2930;42.678;23.312;2023-03-13T04:44:24;0.57;;;0.57;;
5807;SDS011;2930;42.678;23.312;2023-03-13T04:46:50;0.40;;;0.40;;
5807;SDS011;2930;42.678;23.312;2023-03-13T04:49:15;0.33;;;0.33;;
5807;SDS011;2930;42.678;23.312;2023-03-13T04:51:41;0.63;;;0.63;;
5807;SDS011;2930;42.678;23.312;2023-03-13T04:54:08;0.70;;;0.70;;
5807;SDS011;2930;42.678;23.312;2023-03-13T04:56:34;0.40;;;0.40;;
5807;SDS011;2930;42.678;23.312;2023-03-13T04:59:00;1.40;;;0.73;;
5807;SDS011;2930;42.678;23.312;2023-03-13T05:01:26;0.40;;;0.40;;
5807;SDS011;2930;42.678;23.312;2023-03-13T05:03:52;0.60;;;0.53;;
5807;SDS011;2930;42.678;23.312;2023-03-13T05:06:17;0.43;;;0.43;;
5807;SDS011;2930;42.678;23.312;2023-03-13T05:08:43;0.60;;;0.60;;
5807;SDS011;2930;42.678;23.312;2023-03-13T05:11:09;0.60;;;0.47;;
5807;SDS011;2930;42.678;23.312;2023-03-13T05:13:34;0.80;;;0.60;;
5807;SDS011;2930;42.678;23.312;2023-03-13T05:16:00;0.53;;;0.53;;
5807;SDS011;2930;42.678;23.312;2023-03-13T05:18:26;0.77;;;0.77;;
5807;SDS011;2930;42.678;23.312;2023-03-13T05:20:52;1.77;;;0.80;;
5807;SDS011;2930;42.678;23.312;2023-03-13T05:23:17;0.90;;;0.90;;
5807;SDS011;2930;42.678;23.312;2023-03-13T05:25:43;1.27;;;0.50;;
5807;SDS011;2930;42.678;23.312;2023-03-13T05:28:09;1.37;;;1.00;;
5807;SDS011;2930;42.678;23.312;2023-03-13T05:30:34;1.53;;;1.10;;
5807;SDS011;2930;42.678;23.312;2023-03-13T05:33:00;1.40;;;1.00;;
5807;SDS011;2930;42.678;23.312;2023-03-13T05:35:26;0.70;;;0.63;;
5807;SDS011;2930;42.678;23.312;2023-03-13T05:37:52;0.80;;;0.80;;
5807;SDS011;2930;42.678;23.312;2023-03-13T05:40:17;0.87;;;0.87;;
5807;SDS011;2930;42.678;23.312;2023-03-13T05:42:43;0.70;;;0.70;;
5807;SDS011;2930;42.678;23.312;2023-03-13T05:45:09;0.63;;;0.50;;
5807;SDS011;2930;42.678;23.312;2023-03-13T05:47:35;1.23;;;0.93;;
5807;SDS011;2930;42.678;23.312;2023-03-13T05:50:02;1.53;;;1.10;;
5807;SDS011;2930;42.678;23.312;2023-03-13T05:52:29;1.37;;;1.27;;
5807;SDS011;2930;42.678;23.312;2023-03-13T05:54:54;0.97;;;0.97;;
5807;SDS011;2930;42.678;23.312;2023-03-13T05:57:20;1.20;;;1.20;;
5807;SDS011;2930;42.678;23.312;2023-03-13T05:59:46;0.87;;;0.87;;
5807;SDS011;2930;42.678;23.312;2023-03-13T06:02:12;1.37;;;1.27;;
5807;SDS011;2930;42.678;23.312;2023-03-13T06:04:37;1.20;;;1.20;;
5807;SDS011;2930;42.678;23.312;2023-03-13T06:07:03;3.30;;;1.27;;
5807;SDS011;2930;42.678;23.312;2023-03-13T06:09:29;1.40;;;1.30;;
5807;SDS011;2930;42.678;23.312;2023-03-13T06:11:55;1.73;;;1.10;;
5807;SDS011;2930;42.678;23.312;2023-03-13T06:14:20;1.13;;;0.97;;
5807;SDS011;2930;42.678;23.312;2023-03-13T06:16:46;1.03;;;1.03;;
5807;SDS011;2930;42.678;23.312;2023-03-13T06:19:12;1.17;;;1.10;;
5807;SDS011;2930;42.678;23.312;2023-03-13T06:21:37;1.13;;;0.93;;
5807;SDS011;2930;42.678;23.312;2023-03-13T06:24:04;0.90;;;0.90;;
5807;SDS011;2930;42.678;23.312;2023-03-13T06:26:29;0.93;;;0.93;;
5807;SDS011;2930;42.678;23.312;2023-03-13T06:28:55;1.80;;;1.43;;
5807;SDS011;2930;42.678;23.312;2023-03-13T06:31:21;0.97;;;0.97;;
5807;SDS011;2930;42.678;23.312;2023-03-13T06:33:46;0.70;;;0.70;;
5807;SDS011;2930;42.678;23.312;2023-03-13T06:36:12;1.17;;;0.87;;
5807;SDS011;2930;42.678;23.312;2023-03-13T06:38:38;0.87;;;0.87;;
5807;SDS011;2930;42.678;23.312;2023-03-13T06:41:03;1.40;;;1.00;;
5807;SDS011;2930;42.678;23.312;2023-03-13T06:43:29;0.70;;;0.70;;
5807;SDS011;2930;42.678;23.312;2023-03-13T06:45:55;1.07;;;0.77;;
5807;SDS011;2930;42.678;23.312;2023-03-13T06:48:20;1.47;;;1.37;;
5807;SDS011;2930;42.678;23.312;2023-03-13T06:50:47;0.73;;;0.73;;
5807;SDS011;2930;42.678;23.312;2023-03-13T06:53:14;0.63;;;0.63;;
5807;SDS011;2930;42.678;23.312;2023-03-13T06:55:42;1.23;;;1.23;;
5807;SDS011;2930;42.678;23.312;2023-03-13T06:58:08;1.07;;;0.93;;
5807;SDS011;2930;42.678;23.312;2023-03-13T07:00:34;1.60;;;1.50;;
5807;SDS011;2930;42.678;23.312;2023-03-13T07:03:00;1.87;;;1.60;;
5807;SDS011;2930;42.678;23.312;2023-03-13T07:05:26;1.60;;;1.20;;
5807;SDS011;2930;42.678;23.312;2023-03-13T07:07:51;1.13;;;1.13;;
5807;SDS011;2930;42.678;23.312;2023-03-13T07:10:17;1.13;;;1.03;;
5807;SDS011;2930;42.678;23.312;2023-03-13T07:12:43;2.63;;;1.23;;
5807;SDS011;2930;42.678;23.312;2023-03-13T07:15:09;1.77;;;1.77;;
5807;SDS011;2930;42.678;23.312;2023-03-13T07:17:35;3.13;;;1.70;;
5807;SDS011;2930;42.678;23.312;2023-03-13T07:20:01;1.60;;;1.57;;
5807;SDS011;2930;42.678;23.312;2023-03-13T07:22:29;1.33;;;1.17;;
5807;SDS011;2930;42.678;23.312;2023-03-13T07:24:55;1.87;;;1.77;;
5807;SDS011;2930;42.678;23.312;2023-03-13T07:27:21;1.47;;;1.37;;
5807;SDS011;2930;42.678;23.312;2023-03-13T07:29:47;3.97;;;1.93;;
5807;SDS011;2930;42.678;23.312;2023-03-13T07:32:13;2.27;;;1.43;;
5807;SDS011;2930;42.678;23.312;2023-03-13T07:34:39;3.13;;;1.80;;
5807;SDS011;2930;42.678;23.312;2023-03-13T07:37:13;1.63;;;1.50;;
5807;SDS011;2930;42.678;23.312;2023-03-13T07:39:42;1.87;;;1.77;;
5807;SDS011;2930;42.678;23.312;2023-03-13T07:42:09;2.47;;;2.17;;
5807;SDS011;2930;42.678;23.312;2023-03-13T07:44:36;1.73;;;1.63;;
5807;SDS011;2930;42.678;23.312;2023-03-13T07:47:02;1.97;;;1.80;;
5807;SDS011;2930;42.678;23.312;2023-03-13T07:49:28;1.70;;;1.70;;
5807;SDS011;2930;42.678;23.312;2023-03-13T07:51:55;2.47;;;2.03;;
5807;SDS011;2930;42.678;23.312;2023-03-13T07:54:21;1.80;;;1.70;;
5807;SDS011;2930;42.678;23.312;2023-03-13T07:56:47;2.33;;;2.13;;
5807;SDS011;2930;42.678;23.312;2023-03-13T07:59:13;2.03;;;1.73;;
5807;SDS011;2930;42.678;23.312;2023-03-13T08:01:40;2.70;;;2.33;;
5807;SDS011;2930;42.678;23.312;2023-03-13T08:04:10;2.77;;;2.13;;
5807;SDS011;2930;42.678;23.312;2023-03-13T08:06:38;3.70;;;2.33;;
5807;SDS011;2930;42.678;23.312;2023-03-13T08:09:05;2.87;;;2.67;;
5807;SDS011;2930;42.678;23.312;2023-03-13T08:11:30;3.33;;;3.07;;
5807;SDS011;2930;42.678;23.312;2023-03-13T08:13:56;8.07;;;3.20;;
5807;SDS011;2930;42.678;23.312;2023-03-13T08:16:23;2.80;;;2.60;;
5807;SDS011;2930;42.678;23.312;2023-03-13T08:18:51;3.30;;;3.00;;
5807;SDS011;2930;42.678;23.312;2023-03-13T08:21:20;3.00;;;2.73;;
5807;SDS011;2930;42.678;23.312;2023-03-13T08:23:47;6.17;;;3.43;;
5807;SDS011;2930;42.678;23.312;2023-03-13T08:26:16;5.23;;;3.57;;
5807;SDS011;2930;42.678;23.312;2023-03-13T08:28:46;6.73;;;3.63;;
5807;SDS011;2930;42.678;23.312;2023-03-13T08:31:16;4.65;;;3.50;;
5807;SDS011;2930;42.678;23.312;2023-03-13T08:33:44;5.10;;;3.83;;
5807;SDS011;2930;42.678;23.312;2023-03-13T08:36:15;7.22;;;4.28;;
5807;SDS011;2930;42.678;23.312;2023-03-13T08:38:42;4.68;;;4.25;;
5807;SDS011;2930;42.678;23.312;2023-03-13T08:41:10;4.20;;;3.90;;
5807;SDS011;2930;42.678;23.312;2023-03-13T08:43:36;5.97;;;4.68;;
5807;SDS011;2930;42.678;23.312;2023-03-13T08:46:02;6.68;;;5.28;;
5807;SDS011;2930;42.678;23.312;2023-03-13T08:48:28;5.50;;;4.45;;
5807;SDS011;2930;42.678;23.312;2023-03-13T08:51:03;5.38;;;4.90;;
5807;SDS011;2930;42.678;23.312;2023-03-13T08:53:31;7.05;;;4.72;;
5807;SDS011;2930;42.678;23.312;2023-03-13T08:55:57;4.82;;;4.32;;
5807;SDS011;2930;42.678;23.312;2023-03-13T08:58:23;6.97;;;5.28;;
5807;SDS011;2930;42.678;23.312;2023-03-13T09:00:49;5.47;;;4.95;;
5807;SDS011;2930;42.678;23.312;2023-03-13T09:03:15;6.20;;;5.15;;
5807;SDS011;2930;42.678;23.312;2023-03-13T09:05:41;6.78;;;5.30;;
5807;SDS011;2930;42.678;23.312;2023-03-13T09:08:08;5.93;;;5.18;;
5807;SDS011;2930;42.678;23.312;2023-03-13T09:10:34;7.80;;;5.43;;
5807;SDS011;2930;42.678;23.312;2023-03-13T09:13:00;5.80;;;4.95;;
5807;SDS011;2930;42.678;23.312;2023-03-13T09:15:26;6.03;;;5.07;;
5807;SDS011;2930;42.678;23.312;2023-03-13T09:17:52;5.15;;;4.68;;
5807;SDS011;2930;42.678;23.312;2023-03-13T09:20:18;4.72;;;4.32;;
5807;SDS011;2930;42.678;23.312;2023-03-13T09:22:44;4.90;;;4.60;;
5807;SDS011;2930;42.678;23.312;2023-03-13T09:25:10;5.97;;;5.45;;
5807;SDS011;2930;42.678;23.312;2023-03-13T09:27:37;5.50;;;5.00;;
5807;SDS011;2930;42.678;23.312;2023-03-13T09:30:03;5.13;;;4.80;;
5807;SDS011;2930;42.678;23.312;2023-03-13T09:32:28;5.93;;;5.00;;
5807;SDS011;2930;42.678;23.312;2023-03-13T09:34:54;5.43;;;4.93;;
5807;SDS011;2930;42.678;23.312;2023-03-13T09:37:20;6.63;;;5.93;;
5807;SDS011;2930;42.678;23.312;2023-03-13T09:39:49;6.30;;;5.72;;
5807;SDS011;2930;42.678;23.312;2023-03-13T09:42:16;5.63;;;5.22;;
5807;SDS011;2930;42.678;23.312;2023-03-13T09:47:47;7.43;;;5.93;;
5807;SDS011;2930;42.678;23.312;2023-03-13T09:50:20;5.72;;;5.13;;
5807;SDS011;2930;42.678;23.312;2023-03-13T09:52:54;6.32;;;5.72;;
5807;SDS011;2930;42.678;23.312;2023-03-13T09:55:27;5.72;;;5.25;;
5807;SDS011;2930;42.678;23.312;2023-03-13T10:00:40;6.18;;;5.65;;
5807;SDS011;2930;42.678;23.312;2023-03-13T10:05:51;5.70;;;5.25;;
5807;SDS011;2930;42.678;23.312;2023-03-13T10:13:24;5.03;;;4.68;;
5807;SDS011;2930;42.678;23.312;2023-03-13T10:15:59;5.90;;;5.28;;
5807;SDS011;2930;42.678;23.312;2023-03-13T10:18:30;6.03;;;5.40;;
5807;SDS011;2930;42.678;23.312;2023-03-13T10:20:57;6.68;;;5.97;;
5807;SDS011;2930;42.678;23.312;2023-03-13T10:26:31;27.70;;;6.63;;
5807;SDS011;2930;42.678;23.312;2023-03-13T10:31:55;4.40;;;4.05;;
5807;SDS011;2930;42.678;23.312;2023-03-13T10:34:23;4.53;;;4.13;;
5807;SDS011;2930;42.678;23.312;2023-03-13T10:36:56;5.25;;;4.85;;
5807;SDS011;2930;42.678;23.312;2023-03-13T10:39:24;8.88;;;4.97;;
5807;SDS011;2930;42.678;23.312;2023-03-13T10:41:56;5.35;;;4.40;;
5807;SDS011;2930;42.678;23.312;2023-03-13T10:44:33;4.22;;;4.00;;
5807;SDS011;2930;42.678;23.312;2023-03-13T10:46:59;4.78;;;4.30;;
5807;SDS011;2930;42.678;23.312;2023-03-13T10:49:26;4.25;;;4.03;;
5807;SDS011;2930;42.678;23.312;2023-03-13T10:51:54;6.32;;;4.82;;
5807;SDS011;2930;42.678;23.312;2023-03-13T10:54:25;5.03;;;4.63;;
5807;SDS011;2930;42.678;23.312;2023-03-13T10:59:43;4.60;;;4.28;;
5807;SDS011;2930;42.678;23.312;2023-03-13T11:05:25;3.83;;;3.63;;
5807;SDS011;2930;42.678;23.312;2023-03-13T11:07:49;5.28;;;4.82;;
5807;SDS011;2930;42.678;23.312;2023-03-13T11:10:22;5.40;;;4.90;;
5807;SDS011;2930;42.678;23.312;2023-03-13T11:12:54;4.38;;;4.00;;
5807;SDS011;2930;42.678;23.312;2023-03-13T11:20:44;5.82;;;5.22;;
5807;SDS011;2930;42.678;23.312;2023-03-13T11:31:13;4.85;;;4.45;;
5807;SDS011;2930;42.678;23.312;2023-03-13T11:36:59;5.00;;;4.57;;
5807;SDS011;2930;42.678;23.312;2023-03-13T11:45:07;4.70;;;4.40;;
5807;SDS011;2930;42.678;23.312;2023-03-13T11:50:22;5.20;;;4.80;;
5807;SDS011;2930;42.678;23.312;2023-03-13T12:01:45;4.95;;;4.60;;
5807;SDS011;2930;42.678;23.312;2023-03-13T12:04:28;7.40;;;5.05;;
5807;SDS011;2930;42.678;23.312;2023-03-13T12:10:14;5.93;;;5.43;;
5807;SDS011;2930;42.678;23.312;2023-03-13T12:15:55;5.60;;;5.20;;
5807;SDS011;2930;42.678;23.312;2023-03-13T12:18:32;6.10;;;5.55;;
5807;SDS011;2930;42.678;23.312;2023-03-13T12:40:13;5.63;;;5.28;;
5807;SDS011;2930;42.678;23.312;2023-03-13T12:43:03;5.97;;;5.47;;
5807;SDS011;2930;42.678;23.312;2023-03-13T12:45:50;9.38;;;5.85;;
5807;SDS011;2930;42.678;23.312;2023-03-13T12:51:24;8.27;;;5.63;;
5807;SDS011;2930;42.678;23.312;2023-03-13T12:54:06;7.63;;;5.22;;
5807;SDS011;2930;42.678;23.312;2023-03-13T12:59:14;5.82;;;5.32;;
5807;SDS011;2930;42.678;23.312;2023-03-13T13:01:44;6.32;;;5.72;;
5807;SDS011;2930;42.678;23.312;2023-03-13T13:04:25;6.05;;;5.38;;
5807;SDS011;2930;42.678;23.312;2023-03-13T13:06:57;6.13;;;5.60;;
5807;SDS011;2930;42.678;23.312;2023-03-13T13:11:54;5.28;;;4.88;;
5807;SDS011;2930;42.678;23.312;2023-03-13T13:30:03;5.80;;;5.30;;
5807;SDS011;2930;42.678;23.312;2023-03-13T13:32:51;6.15;;;5.20;;
5807;SDS011;2930;42.678;23.312;2023-03-13T13:35:22;5.07;;;4.82;;
5807;SDS011;2930;42.678;23.312;2023-03-13T13:38:19;6.53;;;5.95;;
5807;SDS011;2930;42.678;23.312;2023-03-13T13:40:57;5.45;;;5.03;;
5807;SDS011;2930;42.678;23.312;2023-03-13T13:49:13;4.60;;;4.30;;
5807;SDS011;2930;42.678;23.312;2023-03-13T13:57:25;5.03;;;4.63;;
5807;SDS011;2930;42.678;23.312;2023-03-13T14:02:55;4.72;;;4.43;;
5807;SDS011;2930;42.678;23.312;2023-03-13T14:05:25;5.07;;;4.57;;
5807;SDS011;2930;42.678;23.312;2023-03-13T14:07:59;4.68;;;4.28;;
5807;SDS011;2930;42.678;23.312;2023-03-13T14:13:39;5.45;;;4.95;;
5807;SDS011;2930;42.678;23.312;2023-03-13T14:16:21;5.10;;;4.70;;
5807;SDS011;2930;42.678;23.312;2023-03-13T14:18:50;5.03;;;4.72;;
5807;SDS011;2930;42.678;23.312;2023-03-13T14:21:20;5.53;;;4.88;;
5807;SDS011;2930;42.678;23.312;2023-03-13T14:23:50;4.65;;;4.25;;
5807;SDS011;2930;42.678;23.312;2023-03-13T14:26:23;5.68;;;5.18;;
5807;SDS011;2930;42.678;23.312;2023-03-13T14:28:51;5.15;;;4.40;;
5807;SDS011;2930;42.678;23.312;2023-03-13T14:31:37;5.72;;;5.00;;
5807;SDS011;2930;42.678;23.312;2023-03-13T14:34:07;4.30;;;3.95;;
5807;SDS011;2930;42.678;23.312;2023-03-13T14:36:49;4.95;;;4.55;;
5807;SDS011;2930;42.678;23.312;2023-03-13T14:39:18;5.45;;;4.97;;
5807;SDS011;2930;42.678;23.312;2023-03-13T14:41:45;7.80;;;5.18;;
5807;SDS011;2930;42.678;23.312;2023-03-13T14:44:14;5.43;;;4.93;;
5807;SDS011;2930;42.678;23.312;2023-03-13T14:46:53;8.43;;;4.68;;
5807;SDS011;2930;42.678;23.312;2023-03-13T14:49:22;6.93;;;5.43;;
5807;SDS011;2930;42.678;23.312;2023-03-13T14:51:58;6.53;;;5.50;;
5807;SDS011;2930;42.678;23.312;2023-03-13T14:54:49;5.72;;;5.13;;
5807;SDS011;2930;42.678;23.312;2023-03-13T14:57:20;6.47;;;4.85;;
5807;SDS011;2930;42.678;23.312;2023-03-13T14:59:48;6.15;;;5.45;;
5807;SDS011;2930;42.678;23.312;2023-03-13T15:02:15;5.60;;;4.93;;
5807;SDS011;2930;42.678;23.312;2023-03-13T15:04:52;5.43;;;4.85;;
5807;SDS011;2930;42.678;23.312;2023-03-13T15:10:15;8.82;;;4.95;;
5807;SDS011;2930;42.678;23.312;2023-03-13T15:12:49;5.10;;;4.65;;
5807;SDS011;2930;42.678;23.312;2023-03-13T15:15:15;4.75;;;4.35;;
5807;SDS011;2930;42.678;23.312;2023-03-13T15:17:41;8.82;;;4.60;;
5807;SDS011;2930;42.678;23.312;2023-03-13T15:20:09;5.40;;;4.90;;
5807;SDS011;2930;42.678;23.312;2023-03-13T15:22:37;5.30;;;4.88;;
5807;SDS011;2930;42.678;23.312;2023-03-13T15:25:14;4.78;;;4.47;;
5807;SDS011;2930;42.678;23.312;2023-03-13T15:27:40;5.00;;;4.18;;
5807;SDS011;2930;42.678;23.312;2023-03-13T15:30:06;4.78;;;4.38;;
5807;SDS011;2930;42.678;23.312;2023-03-13T15:32:33;7.38;;;4.22;;
5807;SDS011;2930;42.678;23.312;2023-03-13T15:35:01;3.97;;;3.78;;
5807;SDS011;2930;42.678;23.312;2023-03-13T15:37:40;5.22;;;4.22;;
5807;SDS011;2930;42.678;23.312;2023-03-13T15:40:08;8.13;;;5.10;;
5807;SDS011;2930;42.678;23.312;2023-03-13T15:42:39;5.22;;;4.82;;
5807;SDS011;2930;42.678;23.312;2023-03-13T15:45:05;6.43;;;5.38;;
5807;SDS011;2930;42.678;23.312;2023-03-13T15:47:31;4.93;;;4.55;;
5807;SDS011;2930;42.678;23.312;2023-03-13T15:49:56;4.97;;;4.55;;
5807;SDS011;2930;42.678;23.312;2023-03-13T15:52:22;5.03;;;4.55;;
5807;SDS011;2930;42.678;23.312;2023-03-13T15:54:48;5.15;;;4.63;;
5807;SDS011;2930;42.678;23.312;2023-03-13T15:57:16;5.43;;;4.95;;
5807;SDS011;2930;42.678;23.312;2023-03-13T15:59:46;4.05;;;3.70;;
5807;SDS011;2930;42.678;23.312;2023-03-13T16:02:13;4.97;;;3.95;;
5807;SDS011;2930;42.678;23.312;2023-03-13T16:04:41;5.35;;;4.07;;
5807;SDS011;2930;42.678;23.312;2023-03-13T16:07:09;4.82;;;4.45;;
5807;SDS011;2930;42.678;23.312;2023-03-13T16:09:36;4.88;;;4.47;;
5807;SDS011;2930;42.678;23.312;2023-03-13T16:12:02;4.38;;;4.00;;
5807;SDS011;2930;42.678;23.312;2023-03-13T16:14:27;4.57;;;4.20;;
5807;SDS011;2930;42.678;23.312;2023-03-13T16:16:53;3.83;;;3.63;;
5807;SDS011;2930;42.678;23.312;2023-03-13T16:19:19;6.95;;;4.00;;
5807;SDS011;2930;42.678;23.312;2023-03-13T16:21:44;10.20;;;4.93;;
5807;SDS011;2930;42.678;23.312;2023-03-13T16:24:12;4.50;;;4.10;;
5807;SDS011;2930;42.678;23.312;2023-03-13T16:26:39;6.35;;;4.18;;
5807;SDS011;2930;42.678;23.312;2023-03-13T16:29:04;4.63;;;4.15;;
5807;SDS011;2930;42.678;23.312;2023-03-13T16:31:31;5.30;;;4.85;;
5807;SDS011;2930;42.678;23.312;2023-03-13T16:33:57;5.57;;;4.97;;
5807;SDS011;2930;42.678;23.312;2023-03-13T16:36:25;7.53;;;5.57;;
5807;SDS011;2930;42.678;23.312;2023-03-13T16:38:54;5.68;;;4.97;;
5807;SDS011;2930;42.678;23.312;2023-03-13T16:41:20;9.70;;;5.57;;
5807;SDS011;2930;42.678;23.312;2023-03-13T16:43:47;7.70;;;6.38;;
5807;SDS011;2930;42.678;23.312;2023-03-13T16:46:20;7.82;;;5.70;;
5807;SDS011;2930;42.678;23.312;2023-03-13T16:48:48;11.98;;;6.50;;
5807;SDS011;2930;42.678;23.312;2023-03-13T16:53:43;11.82;;;6.80;;
5807;SDS011;2930;42.678;23.312;2023-03-13T16:58:59;10.85;;;6.90;;
5807;SDS011;2930;42.678;23.312;2023-03-13T17:01:26;10.85;;;6.93;;
5807;SDS011;2930;42.678;23.312;2023-03-13T17:03:53;8.52;;;5.95;;
5807;SDS011;2930;42.678;23.312;2023-03-13T17:06:20;13.00;;;6.80;;
5807;SDS011;2930;42.678;23.312;2023-03-13T17:08:48;10.30;;;6.60;;
5807;SDS011;2930;42.678;23.312;2023-03-13T17:11:14;10.05;;;6.70;;
5807;SDS011;2930;42.678;23.312;2023-03-13T17:13:43;9.38;;;6.47;;
5807;SDS011;2930;42.678;23.312;2023-03-13T17:16:13;9.98;;;6.07;;
5807;SDS011;2930;42.678;23.312;2023-03-13T17:18:45;10.60;;;6.57;;
5807;SDS011;2930;42.678;23.312;2023-03-13T17:21:13;8.85;;;5.57;;
5807;SDS011;2930;42.678;23.312;2023-03-13T17:23:49;13.00;;;6.32;;
5807;SDS011;2930;42.678;23.312;2023-03-13T17:26:22;12.23;;;6.75;;
5807;SDS011;2930;42.678;23.312;2023-03-13T17:28:53;9.55;;;5.85;;
5807;SDS011;2930;42.678;23.312;2023-03-13T17:31:21;13.00;;;5.53;;